Terminal Aerodrome Forecast
Issued by NWS

Home | Current Version | Previous Version | Text Only | Print | Product List | Glossary On
Versions: 1 2 3 4 5 6 7 8 9 10 11 12 13 14 15 16 17 18 19 20 21 22 23 24
000
FTUS45 KVEF 202320
TAFIFP
TAF
KIFP 202320Z 2100/2124 23012KT P6SM VCSH SCT080 OVC120
     FM210200 24010KT P6SM -SHRA BKN080 OVC100
     FM210900 VRB05KT P6SM VCSH BKN120
     FM211700 18012G18KT P6SM BKN150=

USA.gov is the U.S. government's official web portal to all federal, state and local government web resources and services.